ラパス の空港の天気 - METARとTAF

エル・アルト国際空港 ( SLLP / LPB ) - ボリビア ラパス
飛行場実況気象(Metar)
観測時間07/28 22:00 BOT (07/29 02:00 UTC)
風向・風速東南東 4m/s
視程4000m
天気現象周辺で霧
少しの雲 雲底高度 90m
全天の4割程度の雲 雲底高度 6100m
気温4℃
湿度93%
気圧1037hPa
METARSLLP 290200Z 12008KT 080V160 4000E VCFG FEW003 SCT200 04/03 Q1037
過去の天気等 Google飛行場航空写真 Wunderground天気予報

過去48時間のMETAR

飛行場予報(TAF)
発表時間: 7/28 12:00 BOT (7/28 16:00 UTC)
予報対象時間: 28日14時 BOT ~ 29日14時 BOT
風向・風速西北西 6m/s 瞬間風速 13m/s
視程10km以上
全天の4割程度の雲 雲底高度 610m
28日18時 BOT ~ 28日21時 BOT に徐々に
風向・風速東 3m/s
28日22時 BOT ~ 29日1時 BOT に徐々に
29日2時 BOT ~ 29日6時 BOT に 確率 30% で一時的に
視程800m
天気現象
29日8時 BOT ~ 29日10時 BOT に徐々に
風向・風速西 5m/s
視程10km以上
天気現象運行に影響にある天気現象が終了
TAF SLLP 281600Z 2818/2918 30012G25KT 9999 SCT020 TX15/2819Z TNM03/ 2911Z
BECMG 2822/2901 08005KT
BECMG 2902/2905 3000E VCFG FEW003
PROB30 TEMPO 2906/2910 0800 FG
BECMG 2912/2914 26010KT 9999 NSW